Loncopue, Argentina
Current Conditions -  °F | °C
As of 9:00 AM on Monday 24 Nov 2014 (Local Time) from SCQP Reporting Station
Broken Clouds Broken Clouds  
Wind Chill: 11°   Ceiling: 4000
Heat Index: 11°   Visibility: 6mi
Dew Point:   Wind: 3mph
Humidity: 88%   Direction: 200°SSW
Pressure: 30.15"   Gusts: NA
Location:  38.07°S, 70.62°W
Report Text: SCQP 241200Z 20003KT 9999 BKN040 11/09 Q1021
Loading
Personal Weather Stations






























Interactive Weather Map New forecast layout! Learn more

10-Day Weather Forecast

Advertisements
Track Severe Weather on mobile